sensor_id;sensor_type;location;lat;lon;timestamp;pressure;altitude;pressure_sealevel;temperature;humidity
70930;BME280;58588;48.102;19.682;2023-04-04T00:00:03;99650.19;;;1.72;55.95
70930;BME280;58588;48.102;19.682;2023-04-04T00:03:05;99645.06;;;1.80;55.77
70930;BME280;58588;48.102;19.682;2023-04-04T00:06:08;99647.28;;;1.75;56.37
70930;BME280;58588;48.102;19.682;2023-04-04T00:09:11;99646.19;;;1.77;55.52
70930;BME280;58588;48.102;19.682;2023-04-04T00:12:13;99646.34;;;1.65;56.10
70930;BME280;58588;48.102;19.682;2023-04-04T00:15:15;99645.38;;;1.66;57.69
70930;BME280;58588;48.102;19.682;2023-04-04T00:18:18;99648.78;;;1.56;58.09
70930;BME280;58588;48.102;19.682;2023-04-04T00:21:22;99647.47;;;1.62;58.15
70930;BME280;58588;48.102;19.682;2023-04-04T00:24:26;99640.31;;;1.63;56.69
70930;BME280;58588;48.102;19.682;2023-04-04T00:27:28;99649.00;;;1.65;57.56
70930;BME280;58588;48.102;19.682;2023-04-04T00:30:31;99648.41;;;1.61;57.44
70930;BME280;58588;48.102;19.682;2023-04-04T00:33:33;99642.03;;;1.52;57.09
70930;BME280;58588;48.102;19.682;2023-04-04T00:36:36;99635.63;;;1.44;58.55
70930;BME280;58588;48.102;19.682;2023-04-04T00:39:38;99642.22;;;1.72;56.97
70930;BME280;58588;48.102;19.682;2023-04-04T00:42:40;99641.03;;;1.65;56.85
70930;BME280;58588;48.102;19.682;2023-04-04T00:45:42;99651.44;;;1.56;57.78
70930;BME280;58588;48.102;19.682;2023-04-04T00:48:44;99648.19;;;1.53;58.28
70930;BME280;58588;48.102;19.682;2023-04-04T00:51:48;99647.34;;;1.52;58.01
70930;BME280;58588;48.102;19.682;2023-04-04T00:54:51;99652.03;;;1.60;56.71
70930;BME280;58588;48.102;19.682;2023-04-04T00:57:53;99650.34;;;1.59;58.85
70930;BME280;58588;48.102;19.682;2023-04-04T01:00:55;99656.75;;;1.56;58.68
70930;BME280;58588;48.102;19.682;2023-04-04T01:03:57;99649.97;;;1.64;56.76
70930;BME280;58588;48.102;19.682;2023-04-04T01:07:01;99655.44;;;1.62;57.76
70930;BME280;58588;48.102;19.682;2023-04-04T01:10:04;99602.38;;;1.28;57.45
70930;BME280;58588;48.102;19.682;2023-04-04T01:13:07;99662.28;;;1.65;58.35
70930;BME280;58588;48.102;19.682;2023-04-04T01:16:10;99653.28;;;1.45;58.31
70930;BME280;58588;48.102;19.682;2023-04-04T01:19:16;99653.00;;;1.59;58.42
70930;BME280;58588;48.102;19.682;2023-04-04T01:22:22;99649.13;;;1.63;57.86
70930;BME280;58588;48.102;19.682;2023-04-04T01:25:29;99637.69;;;1.51;58.39
70930;BME280;58588;48.102;19.682;2023-04-04T01:28:33;99629.94;;;1.59;58.01
70930;BME280;58588;48.102;19.682;2023-04-04T01:31:39;99621.63;;;1.53;57.86
70930;BME280;58588;48.102;19.682;2023-04-04T01:34:45;99621.75;;;1.51;59.14
70930;BME280;58588;48.102;19.682;2023-04-04T01:37:56;99610.53;;;1.48;58.19
70930;BME280;58588;48.102;19.682;2023-04-04T01:41:04;99610.16;;;1.52;58.12
70930;BME280;58588;48.102;19.682;2023-04-04T01:44:08;99604.50;;;1.46;57.50
70930;BME280;58588;48.102;19.682;2023-04-04T01:47:11;99600.03;;;1.46;58.78
70930;BME280;58588;48.102;19.682;2023-04-04T01:50:13;99589.34;;;1.25;60.26
70930;BME280;58588;48.102;19.682;2023-04-04T01:53:17;99582.19;;;1.26;60.51
70930;BME280;58588;48.102;19.682;2023-04-04T01:56:20;99583.66;;;1.30;59.55
70930;BME280;58588;48.102;19.682;2023-04-04T01:59:22;99580.28;;;1.28;60.28
70930;BME280;58588;48.102;19.682;2023-04-04T02:02:24;99566.69;;;1.21;59.14
70930;BME280;58588;48.102;19.682;2023-04-04T02:05:26;99570.50;;;1.28;59.41
70930;BME280;58588;48.102;19.682;2023-04-04T02:08:28;99566.69;;;1.21;60.15
70930;BME280;58588;48.102;19.682;2023-04-04T02:11:32;99572.59;;;1.14;59.83
70930;BME280;58588;48.102;19.682;2023-04-04T02:14:34;99564.41;;;1.05;60.69
70930;BME280;58588;48.102;19.682;2023-04-04T02:17:37;99555.13;;;1.00;62.20
70930;BME280;58588;48.102;19.682;2023-04-04T02:20:39;99555.41;;;0.86;62.57
70930;BME280;58588;48.102;19.682;2023-04-04T02:23:41;99549.63;;;0.80;62.65
70930;BME280;58588;48.102;19.682;2023-04-04T02:26:45;99545.38;;;0.78;62.94
70930;BME280;58588;48.102;19.682;2023-04-04T02:29:47;99549.75;;;0.79;61.85
70930;BME280;58588;48.102;19.682;2023-04-04T02:32:50;99542.97;;;0.75;62.91
70930;BME280;58588;48.102;19.682;2023-04-04T02:35:52;99537.69;;;0.64;65.04
70930;BME280;58588;48.102;19.682;2023-04-04T02:38:56;99534.91;;;0.65;65.69
70930;BME280;58588;48.102;19.682;2023-04-04T02:42:00;99521.19;;;0.60;63.25
70930;BME280;58588;48.102;19.682;2023-04-04T02:45:02;99520.44;;;0.58;63.92
70930;BME280;58588;48.102;19.682;2023-04-04T02:48:05;99510.94;;;0.67;64.16
70930;BME280;58588;48.102;19.682;2023-04-04T02:51:07;99510.59;;;0.60;63.86
70930;BME280;58588;48.102;19.682;2023-04-04T02:54:09;99508.88;;;0.59;64.19
70930;BME280;58588;48.102;19.682;2023-04-04T02:57:12;99503.53;;;0.82;62.86
70930;BME280;58588;48.102;19.682;2023-04-04T03:00:14;99491.75;;;0.74;62.70
70930;BME280;58588;48.102;19.682;2023-04-04T03:03:17;99504.50;;;0.80;62.29
70930;BME280;58588;48.102;19.682;2023-04-04T03:06:19;99501.97;;;0.79;63.02
70930;BME280;58588;48.102;19.682;2023-04-04T03:09:22;99503.31;;;0.85;63.47
70930;BME280;58588;48.102;19.682;2023-04-04T03:12:25;99503.81;;;0.78;62.52
70930;BME280;58588;48.102;19.682;2023-04-04T03:15:28;99505.31;;;0.92;61.63
70930;BME280;58588;48.102;19.682;2023-04-04T03:18:30;99510.84;;;1.00;60.68
70930;BME280;58588;48.102;19.682;2023-04-04T03:21:32;99513.00;;;1.06;59.99
70930;BME280;58588;48.102;19.682;2023-04-04T03:24:34;99516.16;;;1.00;60.94
70930;BME280;58588;48.102;19.682;2023-04-04T03:27:38;99508.06;;;1.02;62.04
70930;BME280;58588;48.102;19.682;2023-04-04T03:30:40;99515.59;;;0.86;61.61
70930;BME280;58588;48.102;19.682;2023-04-04T03:33:42;99531.53;;;0.63;64.13
70930;BME280;58588;48.102;19.682;2023-04-04T03:36:44;99535.25;;;0.72;62.84
70930;BME280;58588;48.102;19.682;2023-04-04T03:39:47;99536.72;;;0.76;61.89
70930;BME280;58588;48.102;19.682;2023-04-04T03:42:50;99539.38;;;0.65;63.72
70930;BME280;58588;48.102;19.682;2023-04-04T03:45:52;99539.13;;;0.57;64.57
70930;BME280;58588;48.102;19.682;2023-04-04T03:48:54;99545.63;;;0.41;66.12
70930;BME280;58588;48.102;19.682;2023-04-04T03:51:57;99546.72;;;0.28;66.33
70930;BME280;58588;48.102;19.682;2023-04-04T03:54:59;99541.66;;;0.13;67.33
70930;BME280;58588;48.102;19.682;2023-04-04T03:58:02;99550.69;;;0.11;67.82
70930;BME280;58588;48.102;19.682;2023-04-04T04:01:04;99543.09;;;0.06;69.35
70930;BME280;58588;48.102;19.682;2023-04-04T04:04:12;99545.44;;;-0.13;70.75
70930;BME280;58588;48.102;19.682;2023-04-04T04:07:14;99545.06;;;-0.20;72.02
70930;BME280;58588;48.102;19.682;2023-04-04T04:10:16;99555.13;;;-0.36;74.67
70930;BME280;58588;48.102;19.682;2023-04-04T04:13:20;99548.22;;;-0.50;76.71
70930;BME280;58588;48.102;19.682;2023-04-04T04:16:22;99549.97;;;-0.62;77.64
70930;BME280;58588;48.102;19.682;2023-04-04T04:19:24;99552.94;;;-0.77;80.39
70930;BME280;58588;48.102;19.682;2023-04-04T04:22:26;99552.81;;;-0.76;80.38
70930;BME280;58588;48.102;19.682;2023-04-04T04:25:28;99556.34;;;-0.64;81.19
70930;BME280;58588;48.102;19.682;2023-04-04T04:28:32;99554.75;;;-0.67;81.93
70930;BME280;58588;48.102;19.682;2023-04-04T04:31:34;99546.50;;;-0.62;82.00
70930;BME280;58588;48.102;19.682;2023-04-04T04:34:36;99545.31;;;-0.23;72.75
70930;BME280;58588;48.102;19.682;2023-04-04T04:37:38;99544.94;;;-0.18;74.60
70930;BME280;58588;48.102;19.682;2023-04-04T04:40:40;99551.69;;;-0.25;78.88
70930;BME280;58588;48.102;19.682;2023-04-04T04:47:30;99556.13;;;-0.26;77.18
70930;BME280;58588;48.102;19.682;2023-04-04T04:50:32;99557.19;;;-0.40;80.37
70930;BME280;58588;48.102;19.682;2023-04-04T04:53:35;99553.66;;;-0.16;77.76
70930;BME280;58588;48.102;19.682;2023-04-04T04:56:37;99548.31;;;-0.28;76.19
70930;BME280;58588;48.102;19.682;2023-04-04T04:59:39;99548.94;;;-0.24;77.88
70930;BME280;58588;48.102;19.682;2023-04-04T05:02:43;99549.72;;;0.12;71.48
70930;BME280;58588;48.102;19.682;2023-04-04T05:05:45;99545.88;;;0.27;70.58
70930;BME280;58588;48.102;19.682;2023-04-04T05:08:47;99555.53;;;0.50;66.22
70930;BME280;58588;48.102;19.682;2023-04-04T05:11:49;99541.66;;;0.58;67.54
70930;BME280;58588;48.102;19.682;2023-04-04T05:14:51;99554.78;;;0.71;66.08
70930;BME280;58588;48.102;19.682;2023-04-04T05:17:55;99551.16;;;0.83;65.13
70930;BME280;58588;48.102;19.682;2023-04-04T05:20:57;99543.44;;;1.02;63.21
70930;BME280;58588;48.102;19.682;2023-04-04T05:23:59;99543.16;;;1.17;62.69
70930;BME280;58588;48.102;19.682;2023-04-04T05:27:02;99563.53;;;1.27;63.28
70930;BME280;58588;48.102;19.682;2023-04-04T05:30:05;99548.19;;;1.20;62.91
70930;BME280;58588;48.102;19.682;2023-04-04T05:33:10;99558.41;;;1.36;62.32
70930;BME280;58588;48.102;19.682;2023-04-04T05:36:12;99549.75;;;1.54;61.83
70930;BME280;58588;48.102;19.682;2023-04-04T05:39:14;99548.19;;;1.63;62.69
70930;BME280;58588;48.102;19.682;2023-04-04T05:42:16;99537.78;;;1.60;61.81
70930;BME280;58588;48.102;19.682;2023-04-04T05:45:18;99541.38;;;1.70;62.34
70930;BME280;58588;48.102;19.682;2023-04-04T05:48:21;99546.41;;;1.73;61.70
70930;BME280;58588;48.102;19.682;2023-04-04T05:51:23;99546.13;;;1.87;59.94
70930;BME280;58588;48.102;19.682;2023-04-04T05:54:25;99580.72;;;1.97;58.85
70930;BME280;58588;48.102;19.682;2023-04-04T05:57:27;99530.22;;;1.97;60.23
70930;BME280;58588;48.102;19.682;2023-04-04T06:00:30;99541.44;;;2.01;58.69
70930;BME280;58588;48.102;19.682;2023-04-04T06:03:33;99545.91;;;2.00;58.57
70930;BME280;58588;48.102;19.682;2023-04-04T06:06:35;99542.75;;;2.06;58.66
70930;BME280;58588;48.102;19.682;2023-04-04T06:09:38;99552.97;;;2.32;58.82
70930;BME280;58588;48.102;19.682;2023-04-04T06:12:40;99562.69;;;2.22;58.41
70930;BME280;58588;48.102;19.682;2023-04-04T06:15:42;99551.66;;;2.26;57.63
70930;BME280;58588;48.102;19.682;2023-04-04T06:18:46;99559.88;;;2.44;57.63
70930;BME280;58588;48.102;19.682;2023-04-04T06:21:48;99551.66;;;2.57;56.70
70930;BME280;58588;48.102;19.682;2023-04-04T06:24:50;99550.91;;;2.76;56.36
70930;BME280;58588;48.102;19.682;2023-04-04T06:27:52;99549.41;;;2.83;56.26
70930;BME280;58588;48.102;19.682;2023-04-04T06:30:55;99555.19;;;2.88;55.84
70930;BME280;58588;48.102;19.682;2023-04-04T06:33:58;99548.88;;;2.99;55.44
70930;BME280;58588;48.102;19.682;2023-04-04T06:37:02;99551.28;;;3.11;56.54
70930;BME280;58588;48.102;19.682;2023-04-04T06:40:05;99552.13;;;3.12;54.57
70930;BME280;58588;48.102;19.682;2023-04-04T06:43:07;99559.31;;;3.21;54.72
70930;BME280;58588;48.102;19.682;2023-04-04T06:46:09;99548.78;;;3.19;54.08
70930;BME280;58588;48.102;19.682;2023-04-04T06:49:13;99559.88;;;3.25;54.92
70930;BME280;58588;48.102;19.682;2023-04-04T06:52:16;99585.25;;;3.19;54.29
70930;BME280;58588;48.102;19.682;2023-04-04T06:55:18;99554.16;;;3.48;54.20
70930;BME280;58588;48.102;19.682;2023-04-04T06:58:20;99550.38;;;3.51;54.98
70930;BME280;58588;48.102;19.682;2023-04-04T07:01:22;99561.16;;;3.59;52.63
70930;BME280;58588;48.102;19.682;2023-04-04T07:04:25;99557.53;;;3.80;53.72
70930;BME280;58588;48.102;19.682;2023-04-04T07:07:27;99528.63;;;3.56;52.67
70930;BME280;58588;48.102;19.682;2023-04-04T07:10:30;99552.47;;;3.47;51.94
70930;BME280;58588;48.102;19.682;2023-04-04T07:13:32;99529.88;;;3.90;51.84
70930;BME280;58588;48.102;19.682;2023-04-04T07:16:34;99531.28;;;3.85;50.29
70930;BME280;58588;48.102;19.682;2023-04-04T07:19:38;99541.66;;;3.97;50.93
70930;BME280;58588;48.102;19.682;2023-04-04T07:22:41;99526.78;;;3.75;50.53
70930;BME280;58588;48.102;19.682;2023-04-04T07:25:43;99537.31;;;3.87;50.17
70930;BME280;58588;48.102;19.682;2023-04-04T07:28:45;99525.25;;;3.83;50.37
70930;BME280;58588;48.102;19.682;2023-04-04T07:31:47;99528.84;;;4.20;51.26
70930;BME280;58588;48.102;19.682;2023-04-04T07:34:51;99523.09;;;4.06;50.70
70930;BME280;58588;48.102;19.682;2023-04-04T07:37:54;99544.03;;;4.10;49.67
70930;BME280;58588;48.102;19.682;2023-04-04T07:40:58;99533.72;;;4.35;51.42
70930;BME280;58588;48.102;19.682;2023-04-04T07:44:00;99545.53;;;4.22;49.46
70930;BME280;58588;48.102;19.682;2023-04-04T07:47:02;99541.72;;;4.25;49.03
70930;BME280;58588;48.102;19.682;2023-04-04T07:50:07;99543.13;;;4.29;48.47
70930;BME280;58588;48.102;19.682;2023-04-04T07:53:09;99535.53;;;4.24;49.23
70930;BME280;58588;48.102;19.682;2023-04-04T07:56:11;99546.97;;;4.54;49.92
70930;BME280;58588;48.102;19.682;2023-04-04T07:59:13;99543.72;;;4.60;51.59
70930;BME280;58588;48.102;19.682;2023-04-04T08:02:15;99541.97;;;4.78;49.19
70930;BME280;58588;48.102;19.682;2023-04-04T08:05:19;99539.50;;;4.95;49.07
70930;BME280;58588;48.102;19.682;2023-04-04T08:08:21;99543.56;;;4.99;49.75
70930;BME280;58588;48.102;19.682;2023-04-04T08:11:23;99551.19;;;4.94;46.38
70930;BME280;58588;48.102;19.682;2023-04-04T08:14:25;99538.13;;;5.54;49.05
70930;BME280;58588;48.102;19.682;2023-04-04T08:17:27;99538.91;;;5.46;45.55
70930;BME280;58588;48.102;19.682;2023-04-04T08:20:30;99540.03;;;5.97;46.94
70930;BME280;58588;48.102;19.682;2023-04-04T08:23:32;99570.06;;;6.35;46.92
70930;BME280;58588;48.102;19.682;2023-04-04T08:26:34;99550.66;;;6.33;45.25
70930;BME280;58588;48.102;19.682;2023-04-04T08:29:37;99540.28;;;6.90;44.86
70930;BME280;58588;48.102;19.682;2023-04-04T08:32:39;99544.22;;;6.78;45.23
70930;BME280;58588;48.102;19.682;2023-04-04T08:35:43;99542.31;;;6.96;45.29
70930;BME280;58588;48.102;19.682;2023-04-04T08:38:45;99549.59;;;7.20;43.43
70930;BME280;58588;48.102;19.682;2023-04-04T08:41:53;99547.63;;;7.46;44.80
70930;BME280;58588;48.102;19.682;2023-04-04T08:45:00;99527.38;;;7.60;43.47
70930;BME280;58588;48.102;19.682;2023-04-04T08:48:04;99532.34;;;7.31;42.16
70930;BME280;58588;48.102;19.682;2023-04-04T08:51:09;99532.59;;;8.11;46.91
70930;BME280;58588;48.102;19.682;2023-04-04T08:54:13;99526.53;;;7.84;42.10
70930;BME280;58588;48.102;19.682;2023-04-04T08:57:17;99530.25;;;8.16;42.29
70930;BME280;58588;48.102;19.682;2023-04-04T09:00:19;99515.44;;;8.52;42.62
70930;BME280;58588;48.102;19.682;2023-04-04T09:03:23;99541.44;;;8.27;40.13
70930;BME280;58588;48.102;19.682;2023-04-04T09:06:28;99527.56;;;8.16;40.80
70930;BME280;58588;48.102;19.682;2023-04-04T09:09:32;99521.19;;;8.17;42.09
70930;BME280;58588;48.102;19.682;2023-04-04T09:12:35;99514.91;;;8.32;43.98
70930;BME280;58588;48.102;19.682;2023-04-04T09:15:40;99519.53;;;8.79;42.04
70930;BME280;58588;48.102;19.682;2023-04-04T09:18:44;99525.88;;;8.87;39.65
70930;BME280;58588;48.102;19.682;2023-04-04T09:21:48;99531.06;;;7.67;39.92
70930;BME280;58588;48.102;19.682;2023-04-04T09:24:50;99523.38;;;8.05;41.36
70930;BME280;58588;48.102;19.682;2023-04-04T09:27:52;99507.03;;;8.31;42.19
70930;BME280;58588;48.102;19.682;2023-04-04T09:30:55;99504.00;;;8.50;40.30
70930;BME280;58588;48.102;19.682;2023-04-04T09:33:57;99505.91;;;8.17;41.71
70930;BME280;58588;48.102;19.682;2023-04-04T09:37:02;99509.25;;;7.46;40.69
70930;BME280;58588;48.102;19.682;2023-04-04T09:40:06;99505.84;;;8.50;41.46
70930;BME280;58588;48.102;19.682;2023-04-04T09:43:10;99501.78;;;8.62;43.20
70930;BME280;58588;48.102;19.682;2023-04-04T09:46:13;99507.38;;;9.23;39.10
70930;BME280;58588;48.102;19.682;2023-04-04T09:49:18;99502.97;;;8.99;39.79
70930;BME280;58588;48.102;19.682;2023-04-04T09:52:22;99510.03;;;8.61;38.39
70930;BME280;58588;48.102;19.682;2023-04-04T09:55:31;99515.06;;;9.57;38.48
70930;BME280;58588;48.102;19.682;2023-04-04T09:58:34;99514.13;;;8.08;39.33
70930;BME280;58588;48.102;19.682;2023-04-04T10:01:37;99511.59;;;7.41;39.00
70930;BME280;58588;48.102;19.682;2023-04-04T10:04:41;99496.16;;;7.27;39.84
70930;BME280;58588;48.102;19.682;2023-04-04T10:07:45;99477.38;;;8.08;40.70
70930;BME280;58588;48.102;19.682;2023-04-04T10:10:47;99480.59;;;7.71;38.36
70930;BME280;58588;48.102;19.682;2023-04-04T10:13:51;99474.34;;;8.19;39.00
70930;BME280;58588;48.102;19.682;2023-04-04T10:16:55;99491.25;;;8.44;39.99
70930;BME280;58588;48.102;19.682;2023-04-04T10:19:59;99483.63;;;7.92;39.72
70930;BME280;58588;48.102;19.682;2023-04-04T10:23:05;99481.41;;;7.79;40.68
70930;BME280;58588;48.102;19.682;2023-04-04T10:26:07;99483.66;;;8.64;41.42
70930;BME280;58588;48.102;19.682;2023-04-04T10:29:09;99481.75;;;9.58;40.18
70930;BME280;58588;48.102;19.682;2023-04-04T10:32:16;99474.47;;;8.81;37.31
70930;BME280;58588;48.102;19.682;2023-04-04T10:35:24;99489.81;;;7.93;39.08
70930;BME280;58588;48.102;19.682;2023-04-04T10:38:31;99474.69;;;8.16;39.32
70930;BME280;58588;48.102;19.682;2023-04-04T10:41:38;99499.88;;;7.91;38.05
70930;BME280;58588;48.102;19.682;2023-04-04T10:44:41;99468.84;;;7.56;39.39
70930;BME280;58588;48.102;19.682;2023-04-04T10:47:46;99462.13;;;7.43;38.54
70930;BME280;58588;48.102;19.682;2023-04-04T10:50:48;99466.47;;;8.73;40.20
70930;BME280;58588;48.102;19.682;2023-04-04T10:53:52;99469.03;;;8.98;38.11
70930;BME280;58588;48.102;19.682;2023-04-04T10:56:56;99467.16;;;8.67;38.26
70930;BME280;58588;48.102;19.682;2023-04-04T11:00:05;99465.72;;;8.48;38.44
70930;BME280;58588;48.102;19.682;2023-04-04T11:03:08;99454.16;;;8.31;37.13
70930;BME280;58588;48.102;19.682;2023-04-04T11:06:13;99459.38;;;8.41;37.73
70930;BME280;58588;48.102;19.682;2023-04-04T11:09:52;99455.25;;;8.62;39.57
70930;BME280;58588;48.102;19.682;2023-04-04T11:12:55;99462.69;;;8.51;37.51
70930;BME280;58588;48.102;19.682;2023-04-04T11:16:04;99465.19;;;8.61;39.80
70930;BME280;58588;48.102;19.682;2023-04-04T11:19:09;99464.88;;;8.87;39.66
70930;BME280;58588;48.102;19.682;2023-04-04T11:22:14;99466.84;;;9.01;38.66
70930;BME280;58588;48.102;19.682;2023-04-04T11:25:43;99454.63;;;9.82;38.35
70930;BME280;58588;48.102;19.682;2023-04-04T11:28:50;99459.13;;;9.90;37.82
70930;BME280;58588;48.102;19.682;2023-04-04T11:31:52;99469.06;;;9.21;37.28
70930;BME280;58588;48.102;19.682;2023-04-04T11:34:55;99456.19;;;9.62;39.36
70930;BME280;58588;48.102;19.682;2023-04-04T11:37:59;99461.31;;;9.72;38.14
70930;BME280;58588;48.102;19.682;2023-04-04T11:41:04;99446.56;;;9.45;38.02
70930;BME280;58588;48.102;19.682;2023-04-04T11:44:07;99452.06;;;9.89;39.35
70930;BME280;58588;48.102;19.682;2023-04-04T11:47:11;99448.44;;;10.34;37.74
70930;BME280;58588;48.102;19.682;2023-04-04T11:50:14;99431.28;;;11.44;38.33
70930;BME280;58588;48.102;19.682;2023-04-04T11:53:16;99437.16;;;10.60;36.63
70930;BME280;58588;48.102;19.682;2023-04-04T11:56:20;99433.84;;;10.58;35.66
70930;BME280;58588;48.102;19.682;2023-04-04T11:59:23;99437.28;;;11.82;38.26
70930;BME280;58588;48.102;19.682;2023-04-04T12:02:26;99432.56;;;12.19;35.40
70930;BME280;58588;48.102;19.682;2023-04-04T12:05:31;99421.63;;;12.75;38.34
70930;BME280;58588;48.102;19.682;2023-04-04T12:08:33;99417.91;;;11.57;32.63
70930;BME280;58588;48.102;19.682;2023-04-04T12:11:37;99430.69;;;11.48;35.39
70930;BME280;58588;48.102;19.682;2023-04-04T12:14:40;99424.16;;;11.58;35.51
70930;BME280;58588;48.102;19.682;2023-04-04T12:17:42;99427.09;;;11.84;35.83
70930;BME280;58588;48.102;19.682;2023-04-04T12:20:46;99409.81;;;11.36;35.83
70930;BME280;58588;48.102;19.682;2023-04-04T12:23:48;99420.06;;;11.68;36.01
70930;BME280;58588;48.102;19.682;2023-04-04T12:26:52;99430.19;;;12.09;33.85
70930;BME280;58588;48.102;19.682;2023-04-04T12:29:55;99421.88;;;12.45;35.92
70930;BME280;58588;48.102;19.682;2023-04-04T12:32:57;99414.06;;;11.23;35.72
70930;BME280;58588;48.102;19.682;2023-04-04T12:36:01;99411.19;;;11.96;33.96
70930;BME280;58588;48.102;19.682;2023-04-04T12:39:06;99411.53;;;12.14;34.02
70930;BME280;58588;48.102;19.682;2023-04-04T12:42:10;99410.91;;;11.41;33.66
70930;BME280;58588;48.102;19.682;2023-04-04T12:45:13;99407.28;;;11.56;33.60
70930;BME280;58588;48.102;19.682;2023-04-04T12:48:15;99414.66;;;11.68;33.69
70930;BME280;58588;48.102;19.682;2023-04-04T12:51:17;99411.72;;;11.63;32.46
70930;BME280;58588;48.102;19.682;2023-04-04T12:54:25;99402.06;;;11.97;35.55
70930;BME280;58588;48.102;19.682;2023-04-04T12:57:28;99395.97;;;11.88;32.64
70930;BME280;58588;48.102;19.682;2023-04-04T13:00:31;99400.72;;;11.86;34.33
70930;BME280;58588;48.102;19.682;2023-04-04T13:03:33;99393.72;;;11.70;31.76
70930;BME280;58588;48.102;19.682;2023-04-04T13:06:37;99395.03;;;11.32;33.55
70930;BME280;58588;48.102;19.682;2023-04-04T13:09:50;99384.44;;;10.72;32.86
70930;BME280;58588;48.102;19.682;2023-04-04T13:12:56;99385.38;;;11.65;33.61
70930;BME280;58588;48.102;19.682;2023-04-04T13:15:59;99393.38;;;11.80;37.06
70930;BME280;58588;48.102;19.682;2023-04-04T13:19:01;99390.31;;;11.83;32.44
70930;BME280;58588;48.102;19.682;2023-04-04T13:22:07;99385.91;;;11.33;33.06
70930;BME280;58588;48.102;19.682;2023-04-04T13:25:10;99376.91;;;11.96;33.87
70930;BME280;58588;48.102;19.682;2023-04-04T13:28:14;99377.16;;;11.80;32.31
70930;BME280;58588;48.102;19.682;2023-04-04T13:31:18;99394.78;;;11.26;35.21
70930;BME280;58588;48.102;19.682;2023-04-04T13:34:21;99375.50;;;11.30;32.58
70930;BME280;58588;48.102;19.682;2023-04-04T13:37:23;99385.75;;;12.12;33.17
70930;BME280;58588;48.102;19.682;2023-04-04T13:40:26;99382.63;;;12.56;33.62
70930;BME280;58588;48.102;19.682;2023-04-04T13:43:29;99384.28;;;12.16;34.63
70930;BME280;58588;48.102;19.682;2023-04-04T13:46:31;99386.31;;;12.42;33.24
70930;BME280;58588;48.102;19.682;2023-04-04T13:49:33;99387.66;;;12.18;32.54
70930;BME280;58588;48.102;19.682;2023-04-04T13:52:35;99384.00;;;12.39;32.71
70930;BME280;58588;48.102;19.682;2023-04-04T13:55:37;99383.06;;;11.84;35.55
70930;BME280;58588;48.102;19.682;2023-04-04T13:58:41;99398.47;;;11.90;33.92
70930;BME280;58588;48.102;19.682;2023-04-04T14:01:43;99397.53;;;11.12;32.12
70930;BME280;58588;48.102;19.682;2023-04-04T14:04:46;99393.47;;;11.65;33.26
70930;BME280;58588;48.102;19.682;2023-04-04T14:07:48;99405.09;;;10.80;34.26
70930;BME280;58588;48.102;19.682;2023-04-04T14:10:50;99394.84;;;11.12;36.76
70930;BME280;58588;48.102;19.682;2023-04-04T14:13:54;99408.47;;;11.04;33.29
70930;BME280;58588;48.102;19.682;2023-04-04T14:16:56;99402.81;;;10.84;34.67
70930;BME280;58588;48.102;19.682;2023-04-04T14:19:58;99408.47;;;11.25;33.74
70930;BME280;58588;48.102;19.682;2023-04-04T14:23:00;99410.19;;;11.11;35.03
70930;BME280;58588;48.102;19.682;2023-04-04T14:26:02;99410.34;;;11.46;34.80
70930;BME280;58588;48.102;19.682;2023-04-04T14:29:05;99407.28;;;11.77;35.46
70930;BME280;58588;48.102;19.682;2023-04-04T14:32:08;99417.19;;;11.70;31.95
70930;BME280;58588;48.102;19.682;2023-04-04T14:35:10;99411.06;;;10.97;33.31
70930;BME280;58588;48.102;19.682;2023-04-04T14:38:12;99414.38;;;11.35;33.29
70930;BME280;58588;48.102;19.682;2023-04-04T14:41:14;99414.22;;;11.01;33.39
70930;BME280;58588;48.102;19.682;2023-04-04T14:44:18;99406.06;;;10.28;33.74
70930;BME280;58588;48.102;19.682;2023-04-04T14:47:21;99429.13;;;9.78;35.28
70930;BME280;58588;48.102;19.682;2023-04-04T14:50:23;99423.09;;;9.53;35.14
70930;BME280;58588;48.102;19.682;2023-04-04T14:53:25;99396.44;;;8.98;35.86
70930;BME280;58588;48.102;19.682;2023-04-04T14:56:27;99427.31;;;9.71;37.03
70930;BME280;58588;48.102;19.682;2023-04-04T14:59:31;99431.97;;;9.77;35.38
70930;BME280;58588;48.102;19.682;2023-04-04T15:02:34;99426.25;;;8.88;34.95
70930;BME280;58588;48.102;19.682;2023-04-04T15:05:36;99430.75;;;8.96;37.05
70930;BME280;58588;48.102;19.682;2023-04-04T15:08:38;99438.22;;;9.08;36.91
70930;BME280;58588;48.102;19.682;2023-04-04T15:11:40;99431.78;;;8.55;34.23
70930;BME280;58588;48.102;19.682;2023-04-04T15:14:43;99440.78;;;8.71;37.44
70930;BME280;58588;48.102;19.682;2023-04-04T15:17:45;99442.94;;;8.36;37.25
70930;BME280;58588;48.102;19.682;2023-04-04T15:20:47;99445.63;;;8.28;38.47
70930;BME280;58588;48.102;19.682;2023-04-04T15:23:49;99441.81;;;8.06;35.88
70930;BME280;58588;48.102;19.682;2023-04-04T15:26:51;99445.09;;;9.34;34.93
70930;BME280;58588;48.102;19.682;2023-04-04T15:29:55;99444.88;;;9.21;34.95
70930;BME280;58588;48.102;19.682;2023-04-04T15:32:57;99452.13;;;9.81;34.87
70930;BME280;58588;48.102;19.682;2023-04-04T15:35:59;99460.69;;;10.81;34.39
70930;BME280;58588;48.102;19.682;2023-04-04T15:39:01;99452.09;;;11.93;31.98
70930;BME280;58588;48.102;19.682;2023-04-04T15:42:03;99447.47;;;11.87;32.35
70930;BME280;58588;48.102;19.682;2023-04-04T15:45:08;99449.91;;;12.72;30.67
70930;BME280;58588;48.102;19.682;2023-04-04T15:48:11;99457.94;;;13.00;29.67
70930;BME280;58588;48.102;19.682;2023-04-04T15:51:13;99460.84;;;14.00;29.34
70930;BME280;58588;48.102;19.682;2023-04-04T15:54:15;99469.44;;;13.09;29.56
70930;BME280;58588;48.102;19.682;2023-04-04T15:57:17;99473.50;;;12.85;29.52
70930;BME280;58588;48.102;19.682;2023-04-04T16:00:21;99481.44;;;12.24;30.12
70930;BME280;58588;48.102;19.682;2023-04-04T16:03:23;99475.09;;;11.82;30.96
70930;BME280;58588;48.102;19.682;2023-04-04T16:06:25;99491.75;;;10.62;31.55
70930;BME280;58588;48.102;19.682;2023-04-04T16:09:30;99468.97;;;9.37;34.72